Time;durP1;ratioP1;P1;durP2;ratioP2;P2;SDS_P1;SDS_P2;PMS_P1;PMS_P2;Temp;Humidity;BMP_temperature;BMP_pressure;BME280_temperature;BME280_humidity;BME280_pressure;Samples;Min_cycle;Max_cycle;Signal;HPM_P1;HPM_P2
2023/06/23 00:01:34;;;;;;;9.75;7.32;;;18.40;99.90;;;;;;5023620;28;20049;-65
2023/06/23 00:04:00;;;;;;;10.75;7.60;;;18.40;99.90;;;;;;5000994;28;20080;-65
2023/06/23 00:06:26;;;;;;;12.93;7.93;;;18.40;99.90;;;;;;5018313;28;20041;-65
2023/06/23 00:08:52;;;;;;;13.23;8.18;;;18.40;99.90;;;;;;5001189;28;20037;-65
2023/06/23 00:11:19;;;;;;;13.70;8.10;;;18.40;99.90;;;;;;5013256;28;20524;-65
2023/06/23 00:13:44;;;;;;;10.85;7.10;;;18.40;99.90;;;;;;4976693;28;20047;-66
2023/06/23 00:16:10;;;;;;;12.20;7.40;;;18.40;99.90;;;;;;5019124;28;20042;-65
2023/06/23 00:18:42;;;;;;;11.55;6.95;;;18.40;99.90;;;;;;5019524;28;20073;-66
2023/06/23 00:21:09;;;;;;;12.45;6.65;;;18.40;99.90;;;;;;5017849;28;20695;-66
2023/06/23 00:23:36;;;;;;;11.98;6.75;;;18.40;99.90;;;;;;5022132;28;20116;-63
2023/06/23 00:26:04;;;;;;;8.38;6.30;;;18.30;99.90;;;;;;5021887;28;20037;-65
2023/06/23 00:28:30;;;;;;;9.35;5.63;;;18.30;99.90;;;;;;5000285;28;20063;-65
2023/06/23 00:30:56;;;;;;;9.00;5.13;;;18.30;99.90;;;;;;5021118;28;20533;-65
2023/06/23 00:33:22;;;;;;;7.93;5.53;;;18.30;99.90;;;;;;5022935;28;20033;-65
2023/06/23 00:35:48;;;;;;;10.15;5.25;;;18.30;99.90;;;;;;5027098;28;20457;-66
2023/06/23 00:38:14;;;;;;;9.55;5.20;;;18.30;99.90;;;;;;5023936;28;20113;-65
2023/06/23 00:40:42;;;;;;;7.32;5.20;;;18.30;99.90;;;;;;5024712;28;20092;-65
2023/06/23 00:43:08;;;;;;;7.88;4.82;;;18.30;99.90;;;;;;5006982;28;20050;-64
2023/06/23 00:45:34;;;;;;;8.88;4.60;;;18.20;99.90;;;;;;5006116;28;20100;-66
2023/06/23 00:48:05;;;;;;;10.43;4.95;;;18.20;99.90;;;;;;5007278;28;20481;-65
2023/06/23 00:50:31;;;;;;;7.18;4.72;;;18.20;99.90;;;;;;5023063;28;20050;-66
2023/06/23 00:52:57;;;;;;;6.43;4.15;;;18.20;99.90;;;;;;5008823;28;20049;-64
2023/06/23 00:55:27;;;;;;;7.07;4.50;;;18.20;99.90;;;;;;5004081;28;20125;-64
2023/06/23 00:57:55;;;;;;;11.50;4.90;;;18.20;99.90;;;;;;5023572;28;20042;-66
2023/06/23 01:00:23;;;;;;;8.25;4.60;;;18.20;99.90;;;;;;5004655;28;20052;-65
2023/06/23 01:02:54;;;;;;;8.35;4.60;;;18.20;99.90;;;;;;5019990;28;20047;-63
2023/06/23 01:05:26;;;;;;;7.63;4.55;;;18.20;99.90;;;;;;5024073;28;20041;-65
2023/06/23 01:08:30;;;;;;;9.70;4.85;;;18.10;99.90;;;;;;5000368;28;20120;-65
2023/06/23 01:11:12;;;;;;;7.72;4.30;;;18.10;99.90;;;;;;5003165;28;20037;-65
2023/06/23 01:14:08;;;;;;;8.32;5.18;;;18.10;99.90;;;;;;5014105;28;20155;-65
2023/06/23 01:16:44;;;;;;;10.07;4.78;;;18.10;99.90;;;;;;5003612;28;20399;-65
2023/06/23 01:19:38;;;;;;;6.88;4.85;;;18.10;99.90;;;;;;5004764;28;20049;-65
2023/06/23 01:22:21;;;;;;;8.07;4.53;;;18.10;99.90;;;;;;5022815;28;20091;-65
2023/06/23 01:25:18;;;;;;;7.68;4.10;;;18.10;99.90;;;;;;5020233;28;23996;-65
2023/06/23 01:27:59;;;;;;;6.68;4.13;;;18.10;99.90;;;;;;5020889;28;20057;-66
2023/06/23 01:30:27;;;;;;;7.35;4.15;;;18.00;99.90;;;;;;5004791;28;20132;-66
2023/06/23 01:33:06;;;;;;;6.55;4.35;;;18.00;99.90;;;;;;5019323;28;20041;-66
2023/06/23 01:35:38;;;;;;;9.32;4.78;;;18.00;99.90;;;;;;5018842;28;20042;-65
2023/06/23 01:38:18;;;;;;;5.82;4.40;;;18.00;99.90;;;;;;5003876;28;20033;-63
2023/06/23 01:40:46;;;;;;;8.00;4.50;;;18.00;99.90;;;;;;5020648;28;20049;-65
2023/06/23 01:43:15;;;;;;;8.20;4.35;;;17.90;99.90;;;;;;5015589;28;20095;-66
2023/06/23 01:45:41;;;;;;;7.60;4.22;;;17.90;99.90;;;;;;5019710;28;20042;-66
2023/06/23 01:48:09;;;;;;;7.55;4.68;;;17.90;99.90;;;;;;4999125;28;20070;-65
2023/06/23 01:50:39;;;;;;;7.05;4.63;;;17.90;99.90;;;;;;5000616;28;20049;-65
2023/06/23 01:53:07;;;;;;;8.90;4.93;;;17.80;99.90;;;;;;5019999;28;20041;-64
2023/06/23 01:55:34;;;;;;;8.00;5.65;;;17.80;99.90;;;;;;5005958;28;20053;-65
2023/06/23 01:58:01;;;;;;;6.00;4.82;;;17.80;99.90;;;;;;5017334;28;20060;-65
2023/06/23 02:00:28;;;;;;;12.70;5.22;;;17.70;99.90;;;;;;4999977;28;20049;-64
2023/06/23 02:02:56;;;;;;;9.65;6.00;;;17.70;99.90;;;;;;4999907;28;20045;-66
2023/06/23 02:05:24;;;;;;;8.07;5.80;;;17.70;99.90;;;;;;5001451;28;20041;-65
2023/06/23 02:07:52;;;;;;;11.63;5.88;;;17.70;99.90;;;;;;5004273;28;20175;-63
2023/06/23 02:10:19;;;;;;;8.93;5.30;;;17.70;99.90;;;;;;5020584;28;20406;-64
2023/06/23 02:12:46;;;;;;;7.43;4.90;;;17.60;99.90;;;;;;5004251;28;20041;-63
2023/06/23 02:15:14;;;;;;;9.77;4.68;;;17.60;99.90;;;;;;4986079;28;20049;-66
2023/06/23 02:17:42;;;;;;;8.98;4.50;;;17.60;99.90;;;;;;5017541;28;20139;-65
2023/06/23 02:20:16;;;;;;;8.15;4.85;;;17.70;99.90;;;;;;5016702;28;20030;-64
2023/06/23 02:22:48;;;;;;;6.22;4.40;;;17.60;99.90;;;;;;5001569;28;20041;-65
2023/06/23 02:25:15;;;;;;;6.88;3.97;;;17.60;99.90;;;;;;5021267;28;20038;-65
2023/06/23 02:27:42;;;;;;;7.45;4.18;;;17.70;99.90;;;;;;5015932;28;20416;-65
2023/06/23 02:30:09;;;;;;;5.93;4.00;;;17.60;99.90;;;;;;4997051;28;20060;-65
2023/06/23 02:32:35;;;;;;;6.13;4.25;;;17.60;99.90;;;;;;5000559;28;20512;-64
2023/06/23 02:35:01;;;;;;;7.75;4.32;;;17.60;99.90;;;;;;5019461;28;20034;-65
2023/06/23 02:37:31;;;;;;;7.95;5.05;;;17.60;99.90;;;;;;4985745;28;20029;-65
2023/06/23 02:40:12;;;;;;;7.03;4.55;;;17.60;99.90;;;;;;5016895;28;20148;-65
2023/06/23 02:42:44;;;;;;;7.85;4.72;;;17.60;99.90;;;;;;5002949;28;20050;-65
2023/06/23 02:45:18;;;;;;;7.82;5.05;;;17.60;99.90;;;;;;5017770;28;20116;-65
2023/06/23 02:47:46;;;;;;;8.68;5.13;;;17.50;99.90;;;;;;5018035;28;20045;-62
2023/06/23 02:50:14;;;;;;;6.90;4.80;;;17.50;99.90;;;;;;5019911;28;20034;-65
2023/06/23 02:52:45;;;;;;;8.05;5.15;;;17.50;99.90;;;;;;5018788;28;20045;-65
2023/06/23 02:55:14;;;;;;;8.13;5.32;;;17.50;99.90;;;;;;4995776;28;20493;-65
2023/06/23 02:57:41;;;;;;;9.90;5.75;;;17.50;99.90;;;;;;4995874;28;20068;-65
2023/06/23 03:00:15;;;;;;;9.40;5.95;;;17.50;99.90;;;;;;5003798;28;20044;-66
2023/06/23 03:02:43;;;;;;;8.38;5.57;;;17.50;99.90;;;;;;5000723;28;20045;-65
2023/06/23 03:05:09;;;;;;;7.93;5.45;;;17.40;99.90;;;;;;5005939;28;20053;-65
2023/06/23 03:07:38;;;;;;;12.45;6.00;;;17.40;99.90;;;;;;5006475;28;20041;-66
2023/06/23 03:10:05;;;;;;;7.60;5.80;;;17.40;99.90;;;;;;5000950;28;20740;-65
2023/06/23 03:12:32;;;;;;;9.48;5.93;;;17.40;99.90;;;;;;5016859;28;20640;-65
2023/06/23 03:14:59;;;;;;;9.38;6.20;;;17.40;99.90;;;;;;4998015;28;20120;-65
2023/06/23 03:17:30;;;;;;;8.48;6.10;;;17.40;99.90;;;;;;5018422;28;20876;-65
2023/06/23 03:20:07;;;;;;;10.02;6.20;;;17.30;99.90;;;;;;5016901;28;20045;-65
2023/06/23 03:22:38;;;;;;;10.25;6.15;;;17.30;99.90;;;;;;5001311;28;20092;-64
2023/06/23 03:25:11;;;;;;;9.77;6.30;;;17.30;99.90;;;;;;5016726;28;20133;-65
2023/06/23 03:27:39;;;;;;;12.60;6.85;;;17.30;99.90;;;;;;5016792;28;20072;-65
2023/06/23 03:30:42;;;;;;;6.97;6.10;;;17.30;99.90;;;;;;4998212;28;20050;-65
2023/06/23 03:33:20;;;;;;;11.27;6.13;;;17.30;99.90;;;;;;4998744;28;20041;-65
2023/06/23 03:35:47;;;;;;;12.52;6.38;;;17.30;99.90;;;;;;4998943;28;20139;-66
2023/06/23 03:38:18;;;;;;;10.63;7.22;;;17.20;99.90;;;;;;5018543;28;20072;-64
2023/06/23 03:40:50;;;;;;;7.85;6.40;;;17.20;99.90;;;;;;5001767;28;20079;-66
2023/06/23 03:43:27;;;;;;;9.50;6.15;;;17.20;99.90;;;;;;4998135;28;20045;-65
2023/06/23 03:45:57;;;;;;;10.35;6.57;;;17.10;99.90;;;;;;5016081;28;20033;-65
2023/06/23 03:48:28;;;;;;;12.98;6.10;;;17.10;99.90;;;;;;5000060;28;20034;-66
2023/06/23 03:50:57;;;;;;;9.57;6.10;;;17.00;99.90;;;;;;5013855;28;20985;-65
2023/06/23 03:53:26;;;;;;;7.85;5.97;;;17.10;99.90;;;;;;5016899;28;20038;-65
2023/06/23 03:55:53;;;;;;;9.73;6.32;;;17.00;99.90;;;;;;5018588;28;20095;-66
2023/06/23 03:58:21;;;;;;;8.90;5.68;;;17.00;99.90;;;;;;4988968;28;20045;-65
2023/06/23 04:00:49;;;;;;;7.30;5.65;;;16.90;99.90;;;;;;5000587;28;20136;-65
2023/06/23 04:03:17;;;;;;;9.70;5.63;;;16.90;99.90;;;;;;5015400;28;20051;-64
2023/06/23 04:05:44;;;;;;;7.18;5.55;;;16.90;99.90;;;;;;5016342;28;20038;-65
2023/06/23 04:08:11;;;;;;;8.48;5.95;;;16.80;99.90;;;;;;5017539;28;20084;-63
2023/06/23 04:10:38;;;;;;;8.35;5.40;;;16.80;99.90;;;;;;4994476;28;20037;-66
2023/06/23 04:13:06;;;;;;;10.68;5.88;;;16.80;99.90;;;;;;5014645;28;20052;-63
2023/06/23 04:15:36;;;;;;;10.40;6.20;;;16.80;99.90;;;;;;5016871;28;20050;-66
2023/06/23 04:18:03;;;;;;;9.98;6.60;;;16.70;99.90;;;;;;5013012;28;20132;-65
2023/06/23 04:20:30;;;;;;;10.80;5.95;;;16.70;99.90;;;;;;5019210;28;20053;-65
2023/06/23 04:22:57;;;;;;;8.05;6.10;;;16.70;99.90;;;;;;5016313;28;20525;-66
2023/06/23 04:25:23;;;;;;;10.18;5.63;;;16.70;99.90;;;;;;4986838;28;20038;-65
2023/06/23 04:27:55;;;;;;;9.52;6.45;;;16.70;99.90;;;;;;4996437;28;20133;-62
2023/06/23 04:30:22;;;;;;;9.70;6.05;;;16.70;99.90;;;;;;4998568;28;20046;-66
2023/06/23 04:32:48;;;;;;;12.82;6.60;;;16.70;99.90;;;;;;5017072;28;20042;-64
2023/06/23 04:35:14;;;;;;;10.40;7.13;;;16.70;99.90;;;;;;5016148;28;20037;-63
2023/06/23 04:37:46;;;;;;;11.93;7.40;;;16.80;99.90;;;;;;4998868;28;20116;-66
2023/06/23 04:40:20;;;;;;;11.57;6.90;;;16.80;99.90;;;;;;4999484;28;20549;-66
2023/06/23 04:42:54;;;;;;;9.65;6.43;;;16.80;99.90;;;;;;5017089;28;20042;-65
2023/06/23 04:45:24;;;;;;;10.30;7.03;;;16.80;99.90;;;;;;5014188;28;20042;-66
2023/06/23 04:47:56;;;;;;;18.05;8.35;;;16.80;99.90;;;;;;5016130;28;20052;-66
2023/06/23 04:50:25;;;;;;;13.35;8.02;;;16.80;99.90;;;;;;5013984;28;20099;-62
2023/06/23 04:52:55;;;;;;;14.23;7.63;;;16.80;99.90;;;;;;4991090;28;20037;-63
2023/06/23 04:55:29;;;;;;;13.68;7.68;;;16.80;99.90;;;;;;5015533;28;20617;-65
2023/06/23 04:57:57;;;;;;;13.43;8.45;;;16.80;99.90;;;;;;4999387;28;20051;-65
2023/06/23 05:00:25;;;;;;;15.88;8.30;;;16.90;99.90;;;;;;5017595;28;20104;-66
2023/06/23 05:02:55;;;;;;;16.10;7.78;;;16.90;99.90;;;;;;5018243;28;20034;-64
2023/06/23 05:05:24;;;;;;;15.27;7.70;;;16.90;99.90;;;;;;5004698;28;20034;-64
2023/06/23 05:07:52;;;;;;;12.27;7.97;;;16.90;99.90;;;;;;4996224;28;20042;-65
2023/06/23 05:10:20;;;;;;;15.77;8.60;;;16.90;99.90;;;;;;5000331;28;20103;-64
2023/06/23 05:12:51;;;;;;;12.43;8.27;;;16.90;99.90;;;;;;4999208;28;20121;-65
2023/06/23 05:15:21;;;;;;;16.27;8.32;;;17.00;99.90;;;;;;5015455;28;20052;-63
2023/06/23 05:17:53;;;;;;;12.32;8.70;;;17.00;99.90;;;;;;5019180;28;20034;-63
2023/06/23 05:20:22;;;;;;;12.32;8.70;;;17.00;99.90;;;;;;4992709;28;20037;-65
2023/06/23 05:22:51;;;;;;;11.88;7.97;;;17.00;99.90;;;;;;5012032;28;20056;-65
2023/06/23 05:25:19;;;;;;;12.63;8.13;;;17.10;99.90;;;;;;4996008;28;20060;-63
2023/06/23 05:27:45;;;;;;;12.50;8.10;;;17.10;99.90;;;;;;4994316;28;20399;-64
2023/06/23 05:30:17;;;;;;;13.77;9.10;;;17.10;99.90;;;;;;5001928;28;20041;-64
2023/06/23 05:32:47;;;;;;;13.65;8.63;;;17.20;99.90;;;;;;5017666;28;20041;-65
2023/06/23 05:35:14;;;;;;;11.02;8.38;;;17.20;99.90;;;;;;5000328;28;20054;-65
2023/06/23 05:37:42;;;;;;;12.25;8.55;;;17.20;99.90;;;;;;5013245;28;20087;-65
2023/06/23 05:40:12;;;;;;;12.18;7.68;;;17.20;99.90;;;;;;4997860;28;20069;-65
2023/06/23 05:42:39;;;;;;;11.73;8.45;;;17.20;99.90;;;;;;5002989;28;20050;-66
2023/06/23 05:45:05;;;;;;;12.93;9.10;;;17.20;99.90;;;;;;5019658;28;20453;-61
2023/06/23 05:48:10;;;;;;;11.25;8.30;;;17.20;99.90;;;;;;5005544;28;20040;-65
2023/06/23 05:50:38;;;;;;;12.98;8.85;;;17.20;99.90;;;;;;5013786;28;20139;-66
2023/06/23 05:53:07;;;;;;;13.55;9.02;;;17.20;99.90;;;;;;4997726;28;20042;-66
2023/06/23 05:55:43;;;;;;;12.40;8.80;;;17.20;99.90;;;;;;4999557;28;20046;-65
2023/06/23 05:58:12;;;;;;;17.00;10.00;;;17.20;99.90;;;;;;5020939;28;20041;-62
2023/06/23 06:00:43;;;;;;;14.02;9.82;;;17.30;99.90;;;;;;5017364;28;20055;-65
2023/06/23 06:03:14;;;;;;;13.30;9.88;;;17.40;99.90;;;;;;5007888;28;20123;-63
2023/06/23 06:05:45;;;;;;;13.63;9.43;;;17.50;99.90;;;;;;5020078;28;20048;-65
2023/06/23 06:08:11;;;;;;;11.85;9.25;;;17.60;99.90;;;;;;5020726;28;20045;-65
2023/06/23 06:10:38;;;;;;;13.13;8.77;;;17.70;99.90;;;;;;5018894;28;20045;-65
2023/06/23 06:13:05;;;;;;;14.13;9.50;;;17.80;99.90;;;;;;5000312;28;20118;-64
2023/06/23 06:15:33;;;;;;;13.88;9.25;;;17.80;99.90;;;;;;4998864;28;20906;-65
2023/06/23 06:18:04;;;;;;;13.02;8.85;;;17.90;99.90;;;;;;5003518;28;20050;-66
2023/06/23 06:20:32;;;;;;;14.15;9.18;;;18.00;99.90;;;;;;5016027;28;20049;-65
2023/06/23 06:22:58;;;;;;;10.73;8.10;;;18.20;99.90;;;;;;4999502;28;20049;-65
2023/06/23 06:25:26;;;;;;;11.45;7.88;;;18.30;99.90;;;;;;5019186;28;20142;-66
2023/06/23 06:27:53;;;;;;;9.90;7.55;;;18.40;99.90;;;;;;5017655;28;20061;-64
2023/06/23 06:30:21;;;;;;;10.10;7.47;;;18.60;99.90;;;;;;5010807;28;20054;-65
2023/06/23 06:32:49;;;;;;;9.90;6.90;;;18.60;99.90;;;;;;4995267;28;20097;-65
2023/06/23 06:35:16;;;;;;;11.55;6.95;;;18.70;99.90;;;;;;5012126;28;20033;-65
2023/06/23 06:37:47;;;;;;;8.77;7.10;;;18.80;99.90;;;;;;5014370;28;20042;-65
2023/06/23 06:40:17;;;;;;;9.13;6.57;;;18.90;99.90;;;;;;4997612;28;20509;-65
2023/06/23 06:42:43;;;;;;;11.32;6.97;;;19.00;99.90;;;;;;5015313;28;20045;-65
2023/06/23 06:45:09;;;;;;;10.27;6.50;;;19.00;99.90;;;;;;5015637;28;20374;-65
2023/06/23 06:47:40;;;;;;;8.10;6.32;;;19.30;99.90;;;;;;5015770;28;20048;-65
2023/06/23 06:50:08;;;;;;;9.70;6.13;;;19.40;99.90;;;;;;5018447;28;20038;-65
2023/06/23 06:52:36;;;;;;;7.13;5.78;;;19.40;99.90;;;;;;5018828;28;20042;-65
2023/06/23 06:55:03;;;;;;;5.70;4.93;;;19.60;99.90;;;;;;5016376;28;20045;-65
2023/06/23 06:57:35;;;;;;;7.20;5.00;;;19.70;99.90;;;;;;5017001;28;21341;-65
2023/06/23 07:00:04;;;;;;;6.67;4.63;;;19.80;99.90;;;;;;5002210;28;20064;-65
2023/06/23 07:02:32;;;;;;;6.15;5.18;;;19.90;99.90;;;;;;5019904;28;20300;-66
2023/06/23 07:05:01;;;;;;;8.15;5.63;;;20.00;99.90;;;;;;4985213;28;20049;-65
2023/06/23 07:07:29;;;;;;;6.07;4.30;;;20.10;99.90;;;;;;4980816;28;20570;-63
2023/06/23 07:09:54;;;;;;;5.40;4.03;;;20.30;99.90;;;;;;4998579;28;20041;-66
2023/06/23 07:12:20;;;;;;;7.88;4.43;;;20.40;99.90;;;;;;4995931;28;20042;-65
2023/06/23 07:14:46;;;;;;;9.00;4.65;;;20.40;99.90;;;;;;4997530;28;20041;-66
2023/06/23 07:17:12;;;;;;;6.80;4.97;;;20.50;99.90;;;;;;5015862;28;20563;-66
2023/06/23 07:19:38;;;;;;;6.82;4.32;;;20.70;99.90;;;;;;4992405;28;20041;-64
2023/06/23 07:22:05;;;;;;;5.63;4.07;;;20.80;99.90;;;;;;5000322;28;20119;-64
2023/06/23 07:24:30;;;;;;;6.45;4.35;;;20.80;99.90;;;;;;5001423;28;20437;-66
2023/06/23 07:26:56;;;;;;;5.53;4.20;;;20.90;99.90;;;;;;4987496;28;20060;-66
2023/06/23 07:29:22;;;;;;;5.78;4.20;;;21.00;99.90;;;;;;5017139;28;20111;-64
2023/06/23 07:31:47;;;;;;;5.07;4.20;;;21.10;99.90;;;;;;5015676;28;20065;-65
2023/06/23 07:34:13;;;;;;;8.73;4.05;;;21.20;99.90;;;;;;5012273;28;20044;-66
2023/06/23 07:36:39;;;;;;;4.30;3.78;;;21.30;99.90;;;;;;4979829;28;20104;-65
2023/06/23 07:39:05;;;;;;;5.22;3.85;;;21.30;99.90;;;;;;4980556;28;20554;-64
2023/06/23 07:41:30;;;;;;;4.53;3.30;;;21.40;99.90;;;;;;4984267;28;20111;-65
2023/06/23 07:43:56;;;;;;;4.65;3.35;;;21.50;99.90;;;;;;4998087;28;20043;-66
2023/06/23 07:46:22;;;;;;;4.68;3.55;;;21.60;99.90;;;;;;5014984;28;20042;-65
2023/06/23 07:48:47;;;;;;;5.43;3.47;;;21.80;99.90;;;;;;5016822;28;20037;-67
2023/06/23 07:51:13;;;;;;;4.28;3.17;;;21.90;99.90;;;;;;5018215;28;20120;-63
2023/06/23 07:53:39;;;;;;;3.22;2.92;;;22.00;99.60;;;;;;5016389;28;20064;-63
2023/06/23 07:56:05;;;;;;;4.80;3.38;;;22.10;98.90;;;;;;5012664;28;20050;-63
2023/06/23 07:58:30;;;;;;;5.00;3.72;;;22.10;98.60;;;;;;4968697;28;20052;-63
2023/06/23 08:00:56;;;;;;;5.20;3.60;;;22.20;99.10;;;;;;4984099;28;20045;-63
2023/06/23 08:03:22;;;;;;;5.07;3.30;;;22.30;99.40;;;;;;5004688;28;20466;-64
2023/06/23 08:05:47;;;;;;;4.45;3.20;;;22.40;99.00;;;;;;5007062;28;20405;-64
2023/06/23 08:08:13;;;;;;;5.68;3.58;;;22.60;98.70;;;;;;5008179;28;20041;-63
2023/06/23 08:10:39;;;;;;;5.38;3.53;;;22.60;98.50;;;;;;5011389;28;20168;-63
2023/06/23 08:13:05;;;;;;;8.13;3.67;;;22.70;98.60;;;;;;5002806;28;20049;-63
2023/06/23 08:15:30;;;;;;;6.63;4.18;;;22.80;98.90;;;;;;4988440;28;20060;-63
2023/06/23 08:17:56;;;;;;;8.73;4.30;;;22.90;99.20;;;;;;4997314;28;20053;-63
2023/06/23 08:20:22;;;;;;;6.40;4.85;;;23.00;99.30;;;;;;5012582;28;20050;-64
2023/06/23 08:22:48;;;;;;;6.70;4.75;;;23.10;99.50;;;;;;4975021;28;20127;-64
2023/06/23 08:25:14;;;;;;;5.63;4.05;;;23.20;99.50;;;;;;5011725;28;20812;-64
2023/06/23 08:27:40;;;;;;;6.28;4.65;;;23.20;99.40;;;;;;4989597;28;20419;-63
2023/06/23 08:30:06;;;;;;;9.18;5.38;;;23.30;99.80;;;;;;4991573;28;20038;-63
2023/06/23 08:32:32;;;;;;;7.13;5.00;;;23.40;99.90;;;;;;4976281;28;20060;-63
2023/06/23 08:34:59;;;;;;;8.15;5.20;;;23.50;99.90;;;;;;5008784;28;20042;-64
2023/06/23 08:37:25;;;;;;;5.82;4.60;;;23.50;99.90;;;;;;4994299;28;20120;-64
2023/06/23 08:39:51;;;;;;;6.40;4.20;;;23.50;99.90;;;;;;5008156;28;20203;-64
2023/06/23 08:42:17;;;;;;;5.82;4.18;;;23.60;99.90;;;;;;4987831;28;20461;-63
2023/06/23 08:44:47;;;;;;;4.35;3.78;;;23.60;99.50;;;;;;5010270;28;20092;-64
2023/06/23 08:47:15;;;;;;;4.75;3.50;;;23.70;98.90;;;;;;4998061;28;20091;-63
2023/06/23 08:49:42;;;;;;;4.18;3.60;;;23.60;98.40;;;;;;5015923;28;20045;-68
2023/06/23 08:52:11;;;;;;;5.07;3.83;;;23.70;98.10;;;;;;5017271;28;20033;-69
2023/06/23 08:54:39;;;;;;;6.57;4.32;;;23.80;97.90;;;;;;4971143;28;20053;-65
2023/06/23 08:57:06;;;;;;;5.93;5.00;;;23.80;97.70;;;;;;4975082;28;20402;-65
2023/06/23 08:59:32;;;;;;;8.95;3.83;;;23.90;98.00;;;;;;4977692;28;20053;-67
2023/06/23 09:01:57;;;;;;;6.85;3.95;;;24.10;97.50;;;;;;4995012;28;20095;-68
2023/06/23 09:04:23;;;;;;;4.43;3.40;;;24.10;96.90;;;;;;5008351;28;20045;-67
2023/06/23 09:06:49;;;;;;;6.70;3.47;;;24.20;96.60;;;;;;4993087;28;20128;-66
2023/06/23 09:09:15;;;;;;;5.68;3.50;;;24.30;96.30;;;;;;4992698;28;20041;-67
2023/06/23 09:11:42;;;;;;;4.20;3.08;;;24.30;96.00;;;;;;4993764;28;20042;-66
2023/06/23 09:14:10;;;;;;;4.88;3.33;;;24.30;95.70;;;;;;4989535;28;20050;-67
2023/06/23 09:16:37;;;;;;;4.45;2.90;;;24.40;95.00;;;;;;5004913;28;20041;-68
2023/06/23 09:19:05;;;;;;;4.05;2.88;;;24.50;94.30;;;;;;5009491;28;20046;-67
2023/06/23 09:21:35;;;;;;;5.53;3.45;;;24.60;94.00;;;;;;5008189;28;20536;-64
2023/06/23 09:24:05;;;;;;;4.15;2.67;;;24.70;93.50;;;;;;4978400;28;20049;-67
2023/06/23 09:26:51;;;;;;;5.30;2.83;;;24.80;92.90;;;;;;4995840;28;20399;-64
2023/06/23 09:29:20;;;;;;;4.63;2.90;;;24.80;92.60;;;;;;5016248;28;20367;-64
2023/06/23 09:31:48;;;;;;;4.55;3.53;;;24.80;92.20;;;;;;4984305;28;20506;-65
2023/06/23 09:34:30;;;;;;;6.47;3.30;;;24.90;91.90;;;;;;5010123;28;20047;-64
2023/06/23 09:37:08;;;;;;;4.80;3.13;;;25.00;92.20;;;;;;5010033;28;20397;-64
2023/06/23 09:39:41;;;;;;;5.30;3.25;;;25.10;92.00;;;;;;4992457;28;20045;-64
2023/06/23 09:42:11;;;;;;;7.55;3.53;;;25.20;92.20;;;;;;4992919;28;20054;-66
2023/06/23 09:44:39;;;;;;;4.68;3.20;;;25.20;92.30;;;;;;5003022;28;20096;-64
2023/06/23 09:47:06;;;;;;;5.40;3.42;;;25.40;92.10;;;;;;4985369;28;20045;-65
2023/06/23 09:49:49;;;;;;;5.38;3.70;;;25.50;92.30;;;;;;4989696;28;20041;-65
2023/06/23 09:52:26;;;;;;;6.07;3.65;;;25.70;92.50;;;;;;5002472;28;20045;-64
2023/06/23 09:54:52;;;;;;;4.28;3.70;;;25.70;92.50;;;;;;5000202;28;20092;-64
2023/06/23 09:57:19;;;;;;;4.95;4.03;;;25.60;92.30;;;;;;5001438;28;20128;-64
2023/06/23 09:59:48;;;;;;;4.70;3.58;;;25.60;92.50;;;;;;5007752;28;20044;-65
2023/06/23 10:02:25;;;;;;;5.10;4.00;;;25.50;92.60;;;;;;4960150;28;20041;-64
2023/06/23 10:05:05;;;;;;;6.05;4.30;;;25.50;92.80;;;;;;4998077;28;20041;-63
2023/06/23 10:07:31;;;;;;;7.43;4.43;;;25.60;93.10;;;;;;4994176;28;20106;-64
2023/06/23 10:10:00;;;;;;;6.28;4.20;;;25.70;93.00;;;;;;5005215;28;20053;-64
2023/06/23 10:12:27;;;;;;;7.50;4.78;;;25.80;92.80;;;;;;4994988;28;20045;-64
2023/06/23 10:14:56;;;;;;;8.75;4.75;;;25.90;92.40;;;;;;5008092;28;20711;-66
2023/06/23 10:17:22;;;;;;;8.98;5.30;;;26.00;92.30;;;;;;5007875;28;20037;-66
2023/06/23 10:19:49;;;;;;;6.95;5.30;;;26.10;92.20;;;;;;4986569;28;20048;-66
2023/06/23 10:22:18;;;;;;;6.32;4.55;;;26.10;92.10;;;;;;5004665;28;20052;-64
2023/06/23 10:24:49;;;;;;;6.82;4.90;;;26.20;92.30;;;;;;5010665;28;20056;-66
2023/06/23 10:27:23;;;;;;;6.07;4.55;;;26.40;91.50;;;;;;5015132;28;20511;-67
2023/06/23 10:29:52;;;;;;;5.93;4.65;;;26.40;91.40;;;;;;5008141;28;20064;-66
2023/06/23 10:32:22;;;;;;;6.45;4.82;;;26.40;91.10;;;;;;5013151;28;20458;-66
2023/06/23 10:34:50;;;;;;;8.95;4.85;;;26.40;91.20;;;;;;5008014;28;20037;-63
2023/06/23 10:37:23;;;;;;;6.85;4.63;;;26.60;91.20;;;;;;4994777;28;20050;-64
2023/06/23 10:39:57;;;;;;;5.82;5.20;;;26.80;90.90;;;;;;5013107;28;20057;-63
2023/06/23 10:42:24;;;;;;;9.15;5.03;;;26.80;90.50;;;;;;5014008;28;20050;-63
2023/06/23 10:44:50;;;;;;;6.45;4.90;;;26.90;90.30;;;;;;5014965;28;20406;-63
2023/06/23 10:47:16;;;;;;;6.35;5.18;;;26.80;89.50;;;;;;4997043;28;20052;-63
2023/06/23 10:49:44;;;;;;;6.88;5.30;;;26.60;89.60;;;;;;5000313;28;20037;-63
2023/06/23 10:52:11;;;;;;;8.70;5.53;;;26.60;90.30;;;;;;5009482;28;20323;-63
2023/06/23 10:54:36;;;;;;;9.88;5.68;;;26.50;89.60;;;;;;5012958;28;20034;-63
2023/06/23 10:57:13;;;;;;;6.93;5.50;;;26.40;90.10;;;;;;5001929;28;20045;-63
2023/06/23 10:59:59;;;;;;;9.45;5.80;;;26.60;90.00;;;;;;5005949;28;20053;-65
2023/06/23 11:02:25;;;;;;;9.93;6.05;;;26.60;90.00;;;;;;4984649;28;20159;-64
2023/06/23 11:05:03;;;;;;;8.75;5.65;;;26.80;90.10;;;;;;4977807;28;20514;-63
2023/06/23 11:07:28;;;;;;;8.10;5.88;;;27.10;90.30;;;;;;4983470;28;20125;-64
2023/06/23 11:09:54;;;;;;;9.75;5.80;;;27.20;89.70;;;;;;4967503;28;20045;-65
2023/06/23 11:12:34;;;;;;;10.32;5.88;;;27.40;88.70;;;;;;4996350;28;20065;-64
2023/06/23 11:15:03;;;;;;;7.53;6.10;;;27.40;88.10;;;;;;5004426;28;20403;-70
2023/06/23 11:17:29;;;;;;;9.38;6.07;;;27.40;88.00;;;;;;4991240;28;20050;-69
2023/06/23 11:19:56;;;;;;;7.90;5.75;;;27.40;87.20;;;;;;4974883;28;20069;-70
2023/06/23 11:22:22;;;;;;;7.57;6.50;;;27.50;87.30;;;;;;4986796;28;20057;-67
2023/06/23 11:24:52;;;;;;;7.82;6.47;;;27.50;86.20;;;;;;4998452;28;20046;-68
2023/06/23 11:27:18;;;;;;;9.90;6.65;;;27.40;85.60;;;;;;5015407;28;20042;-66
2023/06/23 11:30:15;;;;;;;12.02;6.53;;;27.40;85.60;;;;;;4996689;28;20052;-69
2023/06/23 11:32:41;;;;;;;9.68;6.35;;;27.50;85.30;;;;;;4997281;28;20068;-69
2023/06/23 11:35:08;;;;;;;14.65;6.70;;;27.60;85.90;;;;;;5009084;28;20041;-69
2023/06/23 11:37:34;;;;;;;10.40;7.25;;;27.70;85.50;;;;;;4997872;28;20052;-69
2023/06/23 11:40:05;;;;;;;11.20;7.30;;;27.80;83.70;;;;;;4983846;28;20053;-68
2023/06/23 11:42:31;;;;;;;13.00;7.00;;;27.90;83.90;;;;;;5015274;28;20046;-69
2023/06/23 11:44:57;;;;;;;9.82;6.53;;;28.00;83.00;;;;;;4980735;28;20574;-70
2023/06/23 11:47:25;;;;;;;8.80;6.72;;;27.90;82.70;;;;;;4995512;28;20045;-69
2023/06/23 11:49:52;;;;;;;12.43;6.85;;;28.00;82.90;;;;;;4995669;28;20115;-66
2023/06/23 11:52:20;;;;;;;10.65;7.05;;;28.00;81.80;;;;;;4994332;28;20049;-66
2023/06/23 11:54:48;;;;;;;6.88;5.80;;;28.00;80.70;;;;;;4996795;28;20603;-68
2023/06/23 11:57:19;;;;;;;7.15;5.95;;;28.00;80.80;;;;;;5013327;28;20077;-69
2023/06/23 11:59:46;;;;;;;7.60;5.85;;;28.10;80.40;;;;;;5013029;28;20093;-69
2023/06/23 12:02:12;;;;;;;8.65;4.88;;;28.10;80.10;;;;;;4993529;28;20068;-69
2023/06/23 12:04:39;;;;;;;7.82;5.47;;;28.20;80.10;;;;;;4995380;28;20046;-69
2023/06/23 12:07:05;;;;;;;8.45;5.13;;;28.30;79.50;;;;;;4995455;28;20033;-68
2023/06/23 12:09:31;;;;;;;9.52;4.70;;;28.40;77.80;;;;;;4997102;28;20037;-69
2023/06/23 12:11:58;;;;;;;7.60;5.65;;;28.40;77.30;;;;;;4997600;28;20086;-70
2023/06/23 12:14:43;;;;;;;6.88;4.65;;;28.50;76.80;;;;;;4995473;28;20053;-69
2023/06/23 12:17:11;;;;;;;6.93;4.25;;;28.50;76.40;;;;;;5011407;28;20053;-69
2023/06/23 12:19:38;;;;;;;6.22;3.88;;;28.60;75.70;;;;;;4994570;28;20087;-70
2023/06/23 12:22:12;;;;;;;6.03;3.78;;;28.60;74.40;;;;;;4988131;28;20076;-69
2023/06/23 12:24:38;;;;;;;8.05;3.65;;;28.70;74.70;;;;;;4990714;28;20528;-68
2023/06/23 12:27:05;;;;;;;5.45;3.72;;;28.80;72.80;;;;;;4981059;28;20438;-70
2023/06/23 12:29:31;;;;;;;6.63;4.10;;;28.80;72.30;;;;;;4996269;28;20397;-69
2023/06/23 12:31:59;;;;;;;5.60;4.05;;;28.80;71.60;;;;;;4979751;28;20053;-70
2023/06/23 12:34:35;;;;;;;4.15;3.13;;;28.80;70.50;;;;;;4996186;28;20041;-69
2023/06/23 12:37:06;;;;;;;4.88;3.20;;;28.80;69.30;;;;;;4998880;28;20068;-70
2023/06/23 12:39:35;;;;;;;5.93;3.28;;;28.90;69.20;;;;;;4996720;28;20038;-70
2023/06/23 12:42:02;;;;;;;6.30;3.35;;;29.00;68.80;;;;;;4995364;28;20514;-69
2023/06/23 12:44:30;;;;;;;7.50;3.20;;;29.10;68.40;;;;;;4986189;28;20077;-69
2023/06/23 12:46:57;;;;;;;5.00;2.50;;;29.10;67.50;;;;;;4997054;28;20092;-70
2023/06/23 12:49:33;;;;;;;6.85;2.90;;;29.10;66.20;;;;;;4976672;28;20050;-66
2023/06/23 12:52:02;;;;;;;4.25;2.78;;;29.20;66.30;;;;;;5011974;28;20096;-69
2023/06/23 12:54:28;;;;;;;8.55;3.20;;;29.30;65.90;;;;;;5011261;28;20041;-69